Date,TemperatureHighF,TemperatureAvgF,TemperatureLowF,DewpointHighF,DewpointAvgF,DewpointLowF,HumidityHigh,HumidityAvg,HumidityLow,PressureMaxIn,PressureMinIn,WindSpeedMaxMPH,WindSpeedAvgMPH,GustSpeedMaxMPH,PrecipitationSumIn
2013-10-1,79.9,73.2,68.6,68.4,67.5,65.9,93,83,69,30.02,29.94,6,1,11,0.00
2013-10-2,80.1,72.8,68.5,69.6,67.8,66.4,94,85,69,29.99,29.92,8,2,9,0.00
2013-10-3,85.2,76.4,69.6,72.0,69.2,67.2,93,79,63,29.93,29.86,12,2,12,0.00
2013-10-4,83.8,76.6,69.6,72.1,70.2,67.6,94,81,67,29.92,29.83,17,3,17,0.00
2013-10-5,83.5,76.1,69.1,70.7,68.6,66.4,91,79,65,29.98,29.87,18,4,18,0.00
2013-10-6,82.9,76.7,69.7,70.3,68.8,67.0,91,77,62,29.95,29.86,21,3,21,0.00
2013-10-7,81.7,70.8,65.5,66.5,64.6,63.1,93,82,60,29.91,29.85,13,2,13,0.00
2013-10-8,83.2,70.0,64.8,70.8,64.7,62.7,94,84,66,29.86,29.80,7,2,8,0.00
2013-10-9,81.3,71.2,63.9,71.1,65.2,59.2,92,82,68,29.96,29.84,14,2,14,0.00
2013-10-10,83.0,77.9,74.0,69.0,68.1,66.6,83,72,63,30.04,29.95,16,4,16,0.00
2013-10-11,83.3,77.6,69.0,66.4,63.6,60.0,86,63,47,29.98,29.85,12,4,19,0.00
2013-10-12,83.5,76.0,65.9,65.5,63.7,62.1,90,68,50,29.94,29.85,17,4,21,0.00
2013-10-13,81.5,71.6,68.1,69.1,65.4,64.1,89,81,67,29.94,29.87,14,1,14,0.00
2013-10-14,86.2,80.2,76.9,76.5,74.6,73.5,90,83,72,29.94,29.85,13,3,13,0.00
2013-10-15,84.7,79.0,76.2,76.6,74.4,72.8,90,86,75,29.99,29.85,13,2,13,0.00
2013-10-16,83.2,79.0,75.7,72.3,71.3,70.4,84,78,67,30.03,29.93,14,3,14,0.00
2013-10-17,73.9,72.0,71.1,71.7,70.1,69.3,95,94,92,30.01,29.93,4,1,8,0.01
2013-10-18,79.5,74.5,72.8,73.0,72.0,71.3,95,92,81,29.97,29.90,6,1,2,0.01
2013-10-19,86.4,79.3,69.7,70.3,69.0,67.5,93,72,54,30.00,29.90,11,4,22,0.00
2013-10-20,84.0,76.9,72.0,69.7,68.6,66.2,88,76,56,29.99,29.92,19,3,19,0.00
2013-10-21,85.8,78.8,72.6,70.7,68.4,65.2,88,71,52,29.93,29.84,22,4,22,0.01
2013-10-22,83.4,76.0,70.8,76.4,69.9,67.2,91,82,67,29.92,29.83,11,3,20,0.13
2013-10-23,75.8,72.6,71.7,74.9,71.7,70.7,98,97,96,29.92,29.86,6,2,14,0.32
2013-10-24,83.7,77.6,70.6,73.3,69.3,67.7,95,77,64,29.91,29.82,13,3,2,0.00
2013-10-25,84.0,74.3,67.6,69.1,67.0,64.9,94,80,53,29.98,29.85,11,2,19,0.00
2013-10-26,83.5,76.9,71.4,69.9,68.0,66.0,86,75,62,30.02,29.91,17,3,17,0.00
2013-10-27,84.4,75.7,70.5,70.7,68.8,67.4,91,80,61,30.00,29.93,16,2,16,0.00
2013-10-28,76.0,71.8,69.5,67.7,66.5,65.8,88,84,76,30.00,29.96,6,1,6,0.00
2013-10-29,81.9,72.2,67.6,66.6,64.9,63.9,88,78,56,29.99,29.88,8,1,8,0.00
2013-10-30,83.5,73.9,67.8,68.6,65.9,64.4,90,77,58,29.94,29.86,11,2,11,0.00
2013-10-31,86.0,78.5,69.9,71.7,69.3,66.5,89,74,60,29.94,29.83,14,3,5,0.00